Time;durP1;ratioP1;P1;durP2;ratioP2;P2;SDS_P1;SDS_P2;PMS_P1;PMS_P2;Temp;Humidity;BMP_temperature;BMP_pressure;BME280_temperature;BME280_humidity;BME280_pressure;Samples;Min_cycle;Max_cycle;Signal;HPM_P1;HPM_P2
2023/09/21 00:00:13;;;;;;;0.60;0.40;;;18.80;1.00;;;;;;5114830;28;20701;-58
2023/09/21 00:02:44;;;;;;;0.53;0.40;;;18.80;1.00;;;;;;5115245;28;20715;-58
2023/09/21 00:05:12;;;;;;;0.60;0.40;;;18.80;1.00;;;;;;5115571;28;20808;-58
2023/09/21 00:07:39;;;;;;;0.60;0.40;;;18.80;1.00;;;;;;5115867;28;20458;-58
2023/09/21 00:10:08;;;;;;;0.70;0.40;;;18.70;1.00;;;;;;5116256;28;20728;-58
2023/09/21 00:12:35;;;;;;;0.70;0.40;;;18.70;1.00;;;;;;5116088;28;20855;-58
2023/09/21 00:15:06;;;;;;;0.60;0.40;;;18.70;1.00;;;;;;5116279;28;20753;-57
2023/09/21 00:17:34;;;;;;;0.70;0.40;;;18.70;1.00;;;;;;5115872;28;20420;-59
2023/09/21 00:20:12;;;;;;;0.80;0.40;;;18.70;99.90;;;;;;5116179;28;20416;-57
2023/09/21 00:22:41;;;;;;;1.50;0.40;;;18.60;22.10;;;;;;5116424;28;20423;-57
2023/09/21 00:25:09;;;;;;;1.10;0.50;;;18.60;95.40;;;;;;5116237;28;20431;-58
2023/09/21 00:27:36;;;;;;;0.70;0.40;;;18.60;1.00;;;;;;5115180;28;20469;-58
2023/09/21 00:30:06;;;;;;;0.90;0.40;;;18.60;1.00;;;;;;5115876;28;20462;-57
2023/09/21 00:32:37;;;;;;;0.70;0.40;;;18.70;1.00;;;;;;5115857;28;20839;-58
2023/09/21 00:35:08;;;;;;;0.90;0.40;;;18.70;1.00;;;;;;5116265;28;20820;-56
2023/09/21 00:37:36;;;;;;;0.60;0.40;;;18.70;1.00;;;;;;5115850;28;20855;-58
2023/09/21 00:40:13;;;;;;;0.70;0.40;;;18.80;1.00;;;;;;5115905;28;20416;-58
2023/09/21 00:42:40;;;;;;;0.65;0.40;;;18.80;99.90;;;;;;5115938;28;20519;-58
2023/09/21 00:45:10;;;;;;;0.60;0.40;;;18.70;99.90;;;;;;5115521;28;20428;-58
2023/09/21 00:47:39;;;;;;;1.25;0.40;;;18.70;99.90;;;;;;5114871;28;20491;-58
2023/09/21 00:50:11;;;;;;;1.02;0.40;;;18.70;99.90;;;;;;5114941;28;20758;-58
2023/09/21 00:52:40;;;;;;;0.60;0.40;;;18.70;99.90;;;;;;5115828;28;20436;-58
2023/09/21 00:55:10;;;;;;;0.70;0.40;;;18.70;99.90;;;;;;5115745;28;20424;-58
2023/09/21 00:57:37;;;;;;;1.08;0.40;;;18.70;99.90;;;;;;5115688;28;20420;-58
2023/09/21 01:00:10;;;;;;;0.80;0.50;;;18.70;99.90;;;;;;5115284;28;20766;-56
2023/09/21 01:02:39;;;;;;;0.70;0.40;;;18.70;73.50;;;;;;5114864;28;20412;-58
2023/09/21 01:05:08;;;;;;;0.60;0.40;;;18.70;1.00;;;;;;5115319;28;20735;-58
2023/09/21 01:07:36;;;;;;;0.70;0.40;;;18.70;1.00;;;;;;5115973;28;20471;-58
2023/09/21 01:10:06;;;;;;;0.70;0.40;;;18.70;1.00;;;;;;5115583;28;20432;-57
2023/09/21 01:12:35;;;;;;;0.80;0.50;;;18.70;1.00;;;;;;5114298;28;20858;-57
2023/09/21 01:15:10;;;;;;;0.70;0.40;;;18.70;1.00;;;;;;5114004;28;20428;-56
2023/09/21 01:17:41;;;;;;;0.90;0.40;;;18.60;38.30;;;;;;5113472;28;20461;-57
2023/09/21 01:20:22;;;;;;;2.30;0.40;;;18.60;99.90;;;;;;5113898;28;20772;-58
2023/09/21 01:22:58;;;;;;;0.70;0.40;;;18.50;99.90;;;;;;5114384;28;20741;-56
2023/09/21 01:25:27;;;;;;;0.80;0.40;;;18.50;99.90;;;;;;5114145;28;20510;-57
2023/09/21 01:27:55;;;;;;;1.00;0.40;;;18.50;99.90;;;;;;5115679;28;20424;-57
2023/09/21 01:30:22;;;;;;;0.90;0.40;;;18.50;1.00;;;;;;5114730;28;20420;-57
2023/09/21 01:32:50;;;;;;;0.50;0.40;;;18.50;99.90;;;;;;5114377;28;20437;-58
2023/09/21 01:35:18;;;;;;;0.85;0.40;;;18.60;99.90;;;;;;5115579;28;20715;-57
2023/09/21 01:37:46;;;;;;;0.60;0.40;;;18.60;99.90;;;;;;5115443;28;20428;-58
2023/09/21 01:40:16;;;;;;;0.60;0.40;;;18.70;99.90;;;;;;5115010;28;20476;-56
2023/09/21 01:42:48;;;;;;;0.63;0.40;;;18.80;99.90;;;;;;5115356;28;20415;-54
2023/09/21 01:45:16;;;;;;;1.27;0.50;;;18.80;1.00;;;;;;5115269;28;20420;-56
2023/09/21 01:47:44;;;;;;;2.70;0.60;;;18.90;1.00;;;;;;5114788;28;20416;-57
2023/09/21 01:50:17;;;;;;;0.68;0.50;;;18.90;86.50;;;;;;5115507;28;20877;-57
2023/09/21 01:52:45;;;;;;;1.03;0.50;;;18.90;99.90;;;;;;5115175;28;20863;-57
2023/09/21 01:55:12;;;;;;;1.00;0.50;;;18.90;99.90;;;;;;5114938;28;20420;-56
2023/09/21 01:57:39;;;;;;;1.50;0.40;;;18.90;99.90;;;;;;5114421;28;20415;-56
2023/09/21 02:00:22;;;;;;;0.80;0.50;;;18.90;99.90;;;;;;5113706;28;20806;-57
2023/09/21 02:02:49;;;;;;;1.00;0.40;;;19.00;99.90;;;;;;5115182;28;20412;-56
2023/09/21 02:05:17;;;;;;;0.90;0.40;;;19.00;99.90;;;;;;5114802;28;20420;-59
2023/09/21 02:07:45;;;;;;;0.65;0.40;;;19.00;99.90;;;;;;5114866;28;20424;-58
2023/09/21 02:10:16;;;;;;;0.60;0.40;;;19.00;99.90;;;;;;5115188;28;20428;-58
2023/09/21 02:12:55;;;;;;;0.60;0.40;;;18.90;99.90;;;;;;5115209;28;20432;-57
2023/09/21 02:15:24;;;;;;;0.57;0.40;;;18.90;99.90;;;;;;5115292;28;20724;-57
2023/09/21 02:17:54;;;;;;;0.60;0.40;;;18.90;1.00;;;;;;5114837;28;20430;-55
2023/09/21 02:20:21;;;;;;;1.10;0.50;;;18.90;1.00;;;;;;5115086;28;20412;-58
2023/09/21 02:22:49;;;;;;;1.10;0.50;;;19.00;1.00;;;;;;5115091;28;20450;-57
2023/09/21 02:25:17;;;;;;;0.67;0.40;;;18.90;99.90;;;;;;5114798;28;20516;-57
2023/09/21 02:27:46;;;;;;;0.75;0.40;;;19.00;99.90;;;;;;5115119;28;20412;-57
2023/09/21 02:30:16;;;;;;;1.00;0.50;;;18.90;1.00;;;;;;5118991;28;20424;-58
2023/09/21 02:32:48;;;;;;;0.70;0.40;;;18.90;1.00;;;;;;5114424;28;20806;-57
2023/09/21 02:35:16;;;;;;;0.80;0.50;;;18.90;1.00;;;;;;5107207;28;20419;-57
2023/09/21 02:37:45;;;;;;;0.70;0.40;;;18.90;1.00;;;;;;5117196;28;20420;-58
2023/09/21 02:40:15;;;;;;;0.80;0.50;;;18.80;1.00;;;;;;5118405;28;20546;-58
2023/09/21 02:42:44;;;;;;;1.40;0.50;;;18.60;99.90;;;;;;5118783;28;20424;-57
2023/09/21 02:45:12;;;;;;;0.90;0.50;;;18.30;99.90;;;;;;5117903;28;20430;-58
2023/09/21 02:47:41;;;;;;;0.63;0.40;;;18.30;1.00;;;;;;5118491;28;20418;-57
2023/09/21 02:50:15;;;;;;;0.70;0.43;;;18.20;1.00;;;;;;5118058;28;20419;-56
2023/09/21 02:52:48;;;;;;;1.20;0.50;;;18.30;1.00;;;;;;5118097;28;20728;-55
2023/09/21 02:55:18;;;;;;;1.17;0.50;;;18.40;1.00;;;;;;5117614;28;20458;-56
2023/09/21 02:57:47;;;;;;;0.80;0.50;;;18.50;1.00;;;;;;5117233;28;20463;-58
2023/09/21 03:00:27;;;;;;;1.10;0.50;;;18.40;1.00;;;;;;5118046;28;20482;-57
2023/09/21 03:02:55;;;;;;;2.40;0.50;;;18.30;99.90;;;;;;5116184;28;20835;-58
2023/09/21 03:05:26;;;;;;;0.90;0.50;;;18.20;99.90;;;;;;5116987;28;20465;-58
2023/09/21 03:07:54;;;;;;;0.90;0.60;;;18.20;99.90;;;;;;5116763;28;20522;-58
2023/09/21 03:10:22;;;;;;;1.15;0.50;;;18.30;99.90;;;;;;5116083;28;20424;-56
2023/09/21 03:12:51;;;;;;;0.80;0.50;;;18.30;99.90;;;;;;5116258;28;20462;-57
2023/09/21 03:15:22;;;;;;;0.90;0.50;;;18.10;99.90;;;;;;5116765;28;20432;-58
2023/09/21 03:17:53;;;;;;;0.75;0.50;;;18.10;99.90;;;;;;5116028;28;20417;-58
2023/09/21 03:20:32;;;;;;;0.80;0.50;;;18.20;99.90;;;;;;5114652;28;20457;-58
2023/09/21 03:23:01;;;;;;;1.10;0.50;;;18.10;99.90;;;;;;5114759;28;20420;-58
2023/09/21 03:25:32;;;;;;;0.80;0.50;;;18.10;99.90;;;;;;5114916;28;20914;-58
2023/09/21 03:28:00;;;;;;;1.55;0.50;;;18.10;99.90;;;;;;5114949;28;20839;-57
2023/09/21 03:30:28;;;;;;;0.90;0.50;;;18.10;99.90;;;;;;5115304;28;20823;-57
2023/09/21 03:32:55;;;;;;;0.90;0.52;;;18.00;99.90;;;;;;5116179;28;20478;-57
2023/09/21 03:35:26;;;;;;;0.70;0.50;;;18.10;99.90;;;;;;5116500;28;20735;-57
2023/09/21 03:37:55;;;;;;;1.00;0.60;;;18.10;99.90;;;;;;5116904;28;20428;-58
2023/09/21 03:40:22;;;;;;;0.90;0.50;;;18.20;99.90;;;;;;5116883;28;20420;-58
2023/09/21 03:42:49;;;;;;;0.70;0.50;;;18.20;99.90;;;;;;5117129;28;20456;-58
2023/09/21 03:45:18;;;;;;;0.98;0.52;;;18.20;99.90;;;;;;5115922;28;20434;-58
2023/09/21 03:47:46;;;;;;;0.80;0.50;;;18.30;99.90;;;;;;5114704;28;20416;-58
2023/09/21 03:50:14;;;;;;;0.80;0.50;;;18.30;99.90;;;;;;5116746;28;20896;-57
2023/09/21 03:52:43;;;;;;;0.90;0.50;;;18.40;99.90;;;;;;5117281;28;20424;-58
2023/09/21 03:55:13;;;;;;;1.17;0.50;;;18.50;99.90;;;;;;5116481;28;20417;-57
2023/09/21 03:57:42;;;;;;;0.77;0.50;;;18.50;99.90;;;;;;5115790;28;20423;-56
2023/09/21 04:00:22;;;;;;;1.00;0.60;;;18.40;99.90;;;;;;5116760;28;20412;-60
2023/09/21 04:02:50;;;;;;;0.90;0.50;;;18.30;99.90;;;;;;5116823;28;20463;-57
2023/09/21 04:05:18;;;;;;;1.00;0.60;;;18.20;99.90;;;;;;5116344;28;20419;-56
2023/09/21 04:07:48;;;;;;;1.30;0.50;;;18.30;99.90;;;;;;5116600;28;20510;-58
2023/09/21 04:10:16;;;;;;;1.63;0.50;;;18.30;99.90;;;;;;5116940;28;20523;-58
2023/09/21 04:12:43;;;;;;;0.80;0.50;;;18.40;99.90;;;;;;5116560;28;20424;-55
2023/09/21 04:15:11;;;;;;;0.90;0.50;;;18.40;99.90;;;;;;5116609;28;20952;-58
2023/09/21 04:17:39;;;;;;;0.90;0.50;;;18.50;45.70;;;;;;5112450;28;20431;-58
2023/09/21 04:20:11;;;;;;;1.05;0.50;;;18.60;1.00;;;;;;5099774;28;20800;-58
2023/09/21 04:22:39;;;;;;;1.15;0.50;;;18.60;99.90;;;;;;5115393;28;20716;-58
2023/09/21 04:25:10;;;;;;;0.80;0.50;;;18.60;6.40;;;;;;5114577;28;20926;-58
2023/09/21 04:27:39;;;;;;;0.70;0.50;;;18.50;99.90;;;;;;5114320;28;20426;-58
2023/09/21 04:30:08;;;;;;;0.90;0.50;;;18.40;99.90;;;;;;5111731;28;20850;-58
2023/09/21 04:32:36;;;;;;;0.80;0.40;;;18.30;99.90;;;;;;5110702;28;20421;-56
2023/09/21 04:35:05;;;;;;;0.70;0.40;;;18.30;99.90;;;;;;5096596;28;20428;-58
2023/09/21 04:37:32;;;;;;;0.95;0.45;;;18.30;99.90;;;;;;5111268;28;20423;-57
2023/09/21 04:39:59;;;;;;;2.33;0.50;;;18.30;99.90;;;;;;5111703;28;20719;-57
2023/09/21 04:42:30;;;;;;;1.30;0.50;;;18.40;99.90;;;;;;5111132;28;20511;-58
2023/09/21 04:44:59;;;;;;;1.10;0.60;;;18.60;99.90;;;;;;5113280;28;20448;-57
2023/09/21 04:47:27;;;;;;;0.80;0.50;;;18.70;99.90;;;;;;5113017;28;20485;-58
2023/09/21 04:49:55;;;;;;;1.00;0.50;;;18.60;99.90;;;;;;5113616;28;20424;-54
2023/09/21 04:52:22;;;;;;;0.88;0.50;;;18.60;99.90;;;;;;5114220;28;20424;-57
2023/09/21 04:54:52;;;;;;;0.93;0.60;;;18.60;99.90;;;;;;5114253;28;20882;-57
2023/09/21 04:57:21;;;;;;;0.88;0.50;;;18.60;99.90;;;;;;5113445;28;20430;-56
2023/09/21 04:59:49;;;;;;;1.10;0.60;;;18.40;99.90;;;;;;5113438;28;20695;-58
2023/09/21 05:02:17;;;;;;;0.73;0.50;;;18.30;99.90;;;;;;5114022;28;20507;-57
2023/09/21 05:04:44;;;;;;;1.42;0.50;;;18.30;1.00;;;;;;5114275;28;20415;-58
2023/09/21 05:07:13;;;;;;;1.10;0.55;;;18.20;1.00;;;;;;5114404;28;20420;-58
2023/09/21 05:09:41;;;;;;;0.80;0.50;;;18.30;1.00;;;;;;5114392;28;20835;-57
2023/09/21 05:12:08;;;;;;;0.80;0.50;;;18.30;1.00;;;;;;5102708;28;20433;-57
2023/09/21 05:14:35;;;;;;;1.40;0.50;;;18.40;1.00;;;;;;5107425;28;20420;-58
2023/09/21 05:17:05;;;;;;;0.98;0.50;;;18.40;99.90;;;;;;5112149;28;20528;-58
2023/09/21 05:19:33;;;;;;;1.00;0.50;;;18.50;99.90;;;;;;5108868;28;20427;-58
2023/09/21 05:22:00;;;;;;;1.17;0.70;;;18.50;99.90;;;;;;5109559;28;20423;-58
2023/09/21 05:24:27;;;;;;;0.70;0.50;;;18.70;99.90;;;;;;5106735;28;20463;-58
2023/09/21 05:26:55;;;;;;;0.68;0.50;;;18.80;99.90;;;;;;5108606;28;20424;-58
2023/09/21 05:29:22;;;;;;;0.93;0.50;;;18.90;99.90;;;;;;5109656;28;20730;-57
2023/09/21 05:31:50;;;;;;;0.80;0.50;;;18.80;97.80;;;;;;5109803;28;20464;-58
2023/09/21 05:34:19;;;;;;;0.80;0.50;;;18.80;99.90;;;;;;5108916;28;20427;-57
2023/09/21 05:36:47;;;;;;;0.80;0.60;;;18.80;99.90;;;;;;5110967;28;20427;-58
2023/09/21 05:39:16;;;;;;;1.10;0.60;;;18.90;99.90;;;;;;5110254;28;20790;-58
2023/09/21 05:41:44;;;;;;;1.00;0.50;;;18.90;85.60;;;;;;5112397;28;20839;-58
2023/09/21 05:44:11;;;;;;;0.90;0.50;;;19.00;1.00;;;;;;5113882;28;20411;-58
2023/09/21 05:46:39;;;;;;;1.83;0.60;;;19.10;1.00;;;;;;5111908;28;20621;-58
2023/09/21 05:49:11;;;;;;;2.10;0.60;;;19.10;1.00;;;;;;5112163;28;20434;-59
2023/09/21 05:51:40;;;;;;;1.60;0.50;;;18.90;68.70;;;;;;5111325;28;20435;-59
2023/09/21 05:54:08;;;;;;;1.30;0.70;;;18.90;26.40;;;;;;5110878;28;20591;-59
2023/09/21 05:56:36;;;;;;;1.80;0.60;;;19.00;1.00;;;;;;5113038;28;20739;-59
2023/09/21 05:59:03;;;;;;;0.90;0.60;;;19.10;1.00;;;;;;5111710;28;20503;-58
2023/09/21 06:01:31;;;;;;;0.85;0.60;;;19.10;1.00;;;;;;5118782;27;20422;-59
2023/09/21 06:03:59;;;;;;;1.10;0.60;;;19.10;1.00;;;;;;5132967;27;20845;-59
2023/09/21 06:06:28;;;;;;;0.90;0.50;;;19.10;1.00;;;;;;5133471;27;20482;-58
2023/09/21 06:08:57;;;;;;;1.10;0.60;;;19.10;1.00;;;;;;5134073;27;20426;-58
2023/09/21 06:11:24;;;;;;;1.00;0.60;;;19.20;1.00;;;;;;5134116;27;20810;-56
2023/09/21 06:13:53;;;;;;;1.15;0.60;;;19.10;22.20;;;;;;5134741;27;20444;-56
2023/09/21 06:16:21;;;;;;;1.90;0.70;;;19.10;51.10;;;;;;5134852;27;20418;-57
2023/09/21 06:18:49;;;;;;;0.90;0.60;;;19.00;99.90;;;;;;5134840;27;20433;-55
2023/09/21 06:21:16;;;;;;;1.10;0.70;;;19.00;99.90;;;;;;5134047;27;20422;-55
2023/09/21 06:23:44;;;;;;;1.85;0.60;;;19.00;99.90;;;;;;5134062;27;20453;-55
2023/09/21 06:26:15;;;;;;;2.22;0.70;;;19.00;99.90;;;;;;5135041;27;20454;-54
2023/09/21 06:28:44;;;;;;;0.90;0.60;;;19.10;99.90;;;;;;5133336;27;20422;-56
2023/09/21 06:31:13;;;;;;;1.00;0.60;;;19.10;99.90;;;;;;5134267;27;20427;-57
2023/09/21 06:33:40;;;;;;;1.00;0.60;;;19.30;91.10;;;;;;5135189;27;20453;-57
2023/09/21 06:36:14;;;;;;;1.73;0.60;;;19.40;1.00;;;;;;5136163;27;20418;-56
2023/09/21 06:38:42;;;;;;;1.00;0.60;;;19.40;1.00;;;;;;5130974;27;20498;-55
2023/09/21 06:41:09;;;;;;;1.00;0.50;;;19.40;1.00;;;;;;5127202;27;20503;-57
2023/09/21 06:43:40;;;;;;;0.90;0.65;;;19.50;1.00;;;;;;5114713;28;20470;-56
2023/09/21 06:46:07;;;;;;;0.90;0.60;;;19.60;1.00;;;;;;5112890;28;20480;-57
2023/09/21 06:48:34;;;;;;;1.30;0.70;;;19.80;1.00;;;;;;5111836;28;20412;-58
2023/09/21 06:51:03;;;;;;;1.05;0.60;;;19.90;1.00;;;;;;5130353;27;20557;-58
2023/09/21 06:53:30;;;;;;;1.00;0.60;;;19.90;99.90;;;;;;5134232;27;20725;-57
2023/09/21 06:55:58;;;;;;;0.80;0.50;;;19.80;4.70;;;;;;5135300;27;20996;-56
2023/09/21 06:58:25;;;;;;;0.90;0.50;;;19.70;1.00;;;;;;5134574;27;20430;-56
2023/09/21 07:00:54;;;;;;;0.80;0.50;;;19.70;99.90;;;;;;5131534;27;20429;-56
2023/09/21 07:03:21;;;;;;;0.90;0.50;;;19.70;99.90;;;;;;5134397;27;20426;-57
2023/09/21 07:05:49;;;;;;;0.80;0.50;;;19.70;99.90;;;;;;5133523;27;20428;-57
2023/09/21 07:08:17;;;;;;;0.90;0.50;;;19.60;99.90;;;;;;5133704;27;20406;-57
2023/09/21 07:10:44;;;;;;;1.50;0.50;;;19.70;99.90;;;;;;5133095;27;20426;-58
2023/09/21 07:13:13;;;;;;;1.50;0.50;;;19.70;99.90;;;;;;5133204;27;21075;-56
2023/09/21 07:15:41;;;;;;;1.10;0.60;;;19.70;1.00;;;;;;5133309;27;20422;-57
2023/09/21 07:18:12;;;;;;;1.30;0.60;;;19.80;1.00;;;;;;5120993;27;20674;-56
2023/09/21 07:20:39;;;;;;;1.92;0.60;;;19.90;1.00;;;;;;5128153;27;20471;-57
2023/09/21 07:23:07;;;;;;;1.08;0.50;;;20.00;99.90;;;;;;5132535;27;20425;-56
2023/09/21 07:25:34;;;;;;;0.90;0.60;;;20.00;99.90;;;;;;5130684;27;20421;-57
2023/09/21 07:28:01;;;;;;;1.50;0.60;;;20.10;99.90;;;;;;5130940;27;20485;-56
2023/09/21 07:30:31;;;;;;;1.00;0.60;;;20.20;99.90;;;;;;5131328;27;20446;-56
2023/09/21 07:32:58;;;;;;;0.80;0.60;;;20.30;87.40;;;;;;5131359;27;20430;-57
2023/09/21 07:35:27;;;;;;;0.82;0.50;;;20.30;1.00;;;;;;5132117;27;20928;-56
2023/09/21 07:37:55;;;;;;;1.10;0.60;;;20.40;1.00;;;;;;5129595;27;20419;-55
2023/09/21 07:40:23;;;;;;;0.80;0.50;;;20.50;1.00;;;;;;5131213;27;20871;-56
2023/09/21 07:42:51;;;;;;;1.10;0.50;;;20.50;1.00;;;;;;5131353;27;20434;-57
2023/09/21 07:45:19;;;;;;;0.80;0.50;;;20.60;1.00;;;;;;5126617;27;20849;-56
2023/09/21 07:47:46;;;;;;;1.10;0.60;;;20.60;99.90;;;;;;5133706;27;20414;-57
2023/09/21 07:50:14;;;;;;;0.90;0.57;;;20.60;1.00;;;;;;5132647;27;20410;-56
2023/09/21 07:52:42;;;;;;;1.00;0.60;;;20.60;1.00;;;;;;5133047;27;20418;-57
2023/09/21 07:55:10;;;;;;;1.00;0.60;;;20.60;1.00;;;;;;5129606;27;20526;-56
2023/09/21 07:57:38;;;;;;;1.10;0.50;;;20.70;99.90;;;;;;5129759;27;20849;-57
2023/09/21 08:00:09;;;;;;;1.00;0.50;;;20.80;94.40;;;;;;5129930;27;20691;-56
2023/09/21 08:02:36;;;;;;;0.90;0.60;;;20.80;99.90;;;;;;5127689;27;20414;-56
2023/09/21 08:05:04;;;;;;;0.88;0.50;;;20.90;99.90;;;;;;5128753;27;20799;-56
2023/09/21 08:07:33;;;;;;;0.70;0.50;;;21.10;99.90;;;;;;5128057;27;20436;-56
2023/09/21 08:10:03;;;;;;;1.00;0.60;;;21.30;99.90;;;;;;5132673;27;20429;-56
2023/09/21 08:12:31;;;;;;;0.80;0.50;;;21.70;99.90;;;;;;5132363;27;20419;-57
2023/09/21 08:14:59;;;;;;;1.08;0.70;;;22.10;99.90;;;;;;5128838;27;20427;-56
2023/09/21 08:17:26;;;;;;;1.73;0.68;;;22.20;99.90;;;;;;5129893;27;20431;-56
2023/09/21 08:19:53;;;;;;;1.73;0.60;;;22.40;99.90;;;;;;5130328;27;20430;-56
2023/09/21 08:22:21;;;;;;;1.48;0.60;;;22.50;99.90;;;;;;5127835;27;20856;-57
2023/09/21 08:24:48;;;;;;;1.70;0.60;;;22.70;99.90;;;;;;5128706;27;20433;-56
2023/09/21 08:27:18;;;;;;;1.50;0.70;;;22.70;99.90;;;;;;5132280;27;20422;-57
2023/09/21 08:29:45;;;;;;;1.10;0.70;;;22.80;99.90;;;;;;5130582;27;20429;-56
2023/09/21 08:32:12;;;;;;;1.90;0.60;;;22.70;99.90;;;;;;5128284;27;20424;-54
2023/09/21 08:34:40;;;;;;;1.00;0.60;;;22.70;99.90;;;;;;5131064;27;20430;-56
2023/09/21 08:37:08;;;;;;;2.00;0.70;;;22.60;99.90;;;;;;5130469;27;21143;-54
2023/09/21 08:39:36;;;;;;;1.00;0.60;;;22.50;99.90;;;;;;5126040;27;20456;-54
2023/09/21 08:42:03;;;;;;;1.10;0.70;;;22.60;99.90;;;;;;5130187;27;20414;-55
2023/09/21 08:44:32;;;;;;;1.30;0.60;;;22.70;99.90;;;;;;5129201;27;20406;-55
2023/09/21 08:47:01;;;;;;;1.10;0.60;;;22.90;99.90;;;;;;5127280;27;20452;-55
2023/09/21 08:49:29;;;;;;;0.90;0.50;;;23.10;99.90;;;;;;5128083;27;20536;-54
2023/09/21 08:51:58;;;;;;;0.80;0.50;;;23.30;99.90;;;;;;5123828;27;20513;-53
2023/09/21 08:54:26;;;;;;;1.30;0.50;;;23.50;99.90;;;;;;5130504;27;20844;-55
2023/09/21 08:56:55;;;;;;;0.70;0.40;;;23.60;99.90;;;;;;5129500;27;20948;-57
2023/09/21 08:59:25;;;;;;;1.00;0.50;;;23.70;99.90;;;;;;5130782;27;20839;-54
2023/09/21 09:01:55;;;;;;;1.00;0.45;;;23.80;99.90;;;;;;5130473;27;20470;-56
2023/09/21 09:04:23;;;;;;;1.15;0.50;;;23.80;99.90;;;;;;5132247;27;20950;-56
2023/09/21 09:06:51;;;;;;;0.80;0.50;;;23.70;99.90;;;;;;5132005;27;20853;-56
2023/09/21 09:09:19;;;;;;;0.80;0.50;;;23.80;99.90;;;;;;5131537;27;20870;-57
2023/09/21 09:11:47;;;;;;;1.10;0.50;;;23.70;99.90;;;;;;5132280;27;20740;-54
2023/09/21 09:14:16;;;;;;;0.70;0.40;;;23.70;99.90;;;;;;5132770;27;20418;-56
2023/09/21 09:16:47;;;;;;;0.70;0.50;;;23.70;99.90;;;;;;5132320;27;20430;-57
2023/09/21 09:19:16;;;;;;;0.80;0.50;;;23.80;99.90;;;;;;5129300;28;20438;-56
2023/09/21 09:21:45;;;;;;;0.85;0.40;;;23.90;99.90;;;;;;5121603;28;20434;-55
2023/09/21 09:24:13;;;;;;;0.70;0.47;;;24.10;99.90;;;;;;5130392;28;20761;-57
2023/09/21 09:26:41;;;;;;;0.90;0.50;;;24.30;99.90;;;;;;5130090;28;20501;-58
2023/09/21 09:29:12;;;;;;;0.80;0.50;;;24.30;99.90;;;;;;5130448;28;20419;-58
2023/09/21 09:31:41;;;;;;;0.80;0.50;;;24.30;99.90;;;;;;5132014;28;20418;-59
2023/09/21 09:34:12;;;;;;;1.00;0.50;;;24.30;99.90;;;;;;5131226;28;21032;-59
2023/09/21 09:36:41;;;;;;;0.97;0.40;;;24.50;99.90;;;;;;5130242;27;20469;-59
2023/09/21 09:39:08;;;;;;;0.68;0.40;;;24.50;99.90;;;;;;5130139;27;20448;-59
2023/09/21 09:41:35;;;;;;;0.70;0.40;;;24.70;99.90;;;;;;5122550;27;20506;-58
2023/09/21 09:44:06;;;;;;;0.70;0.45;;;24.80;99.90;;;;;;5141050;27;20428;-59
2023/09/21 09:46:36;;;;;;;1.27;0.40;;;24.80;99.90;;;;;;5131969;27;20462;-60
2023/09/21 09:49:06;;;;;;;0.70;0.50;;;24.80;99.90;;;;;;5131057;27;20458;-59
2023/09/21 09:51:40;;;;;;;1.70;0.50;;;25.00;99.90;;;;;;5134229;27;20801;-59
2023/09/21 09:54:13;;;;;;;0.70;0.40;;;25.10;99.90;;;;;;5132782;27;20828;-59
2023/09/21 09:56:41;;;;;;;0.50;0.40;;;25.40;99.90;;;;;;5125396;27;20770;-59
2023/09/21 09:59:11;;;;;;;0.80;0.50;;;25.50;99.90;;;;;;5134459;27;20426;-59
2023/09/21 10:01:41;;;;;;;1.10;0.50;;;25.50;99.90;;;;;;5133463;27;20425;-60
2023/09/21 10:04:08;;;;;;;0.70;0.40;;;25.60;99.90;;;;;;5133360;27;20520;-60
2023/09/21 10:06:36;;;;;;;1.15;0.50;;;25.60;99.90;;;;;;5133096;27;20873;-59
2023/09/21 10:09:10;;;;;;;0.90;0.40;;;25.50;99.90;;;;;;5131237;27;20537;-59
2023/09/21 10:11:44;;;;;;;0.80;0.40;;;25.50;99.90;;;;;;5131935;27;20822;-59
2023/09/21 10:14:14;;;;;;;1.30;0.40;;;25.50;99.90;;;;;;5133035;27;20422;-59
2023/09/21 10:16:49;;;;;;;0.60;0.40;;;25.70;99.90;;;;;;5133771;27;20433;-59
2023/09/21 10:19:26;;;;;;;1.20;0.50;;;25.70;99.90;;;;;;5133760;27;20449;-59
2023/09/21 10:21:59;;;;;;;0.70;0.40;;;25.50;99.90;;;;;;5133374;27;20798;-59
2023/09/21 10:24:30;;;;;;;0.80;0.50;;;25.40;99.90;;;;;;5131985;27;20929;-58
2023/09/21 10:27:03;;;;;;;0.75;0.50;;;25.30;99.90;;;;;;5132997;27;20463;-58
2023/09/21 10:29:36;;;;;;;1.00;0.60;;;25.40;99.90;;;;;;5132696;27;20414;-58
2023/09/21 10:32:07;;;;;;;0.60;0.40;;;25.50;99.90;;;;;;5131739;27;20482;-59
2023/09/21 10:34:38;;;;;;;1.48;0.40;;;25.70;99.90;;;;;;5131779;27;20410;-59
2023/09/21 10:37:10;;;;;;;0.70;0.30;;;25.90;99.90;;;;;;5130814;27;20781;-59
2023/09/21 10:39:39;;;;;;;0.65;0.40;;;26.00;99.90;;;;;;5133120;27;20521;-59
2023/09/21 10:42:33;;;;;;;0.80;0.40;;;26.20;99.90;;;;;;5132831;27;20433;-58
2023/09/21 10:45:07;;;;;;;0.60;0.40;;;26.30;99.90;;;;;;5135432;27;20422;-60
2023/09/21 10:47:38;;;;;;;1.20;0.40;;;26.60;99.90;;;;;;5135585;27;20464;-60
2023/09/21 10:50:11;;;;;;;0.60;0.40;;;26.60;99.90;;;;;;5134983;27;20429;-60
2023/09/21 10:52:42;;;;;;;0.65;0.40;;;26.50;99.90;;;;;;5133499;27;20682;-60
2023/09/21 10:55:12;;;;;;;0.60;0.40;;;26.40;99.90;;;;;;5131375;27;20449;-60
2023/09/21 10:57:42;;;;;;;0.70;0.50;;;26.50;99.90;;;;;;5132360;27;20524;-61
2023/09/21 11:00:16;;;;;;;0.73;0.40;;;26.60;99.90;;;;;;5130965;27;20471;-60
2023/09/21 11:02:46;;;;;;;0.60;0.40;;;26.50;99.90;;;;;;5110950;27;20957;-60
2023/09/21 11:05:16;;;;;;;0.70;0.40;;;26.50;99.90;;;;;;5131742;27;20414;-61
2023/09/21 11:07:44;;;;;;;0.90;0.40;;;26.50;99.90;;;;;;5135673;27;20422;-58
2023/09/21 11:10:14;;;;;;;0.60;0.40;;;26.50;99.90;;;;;;5130535;27;20853;-59
2023/09/21 11:12:44;;;;;;;0.60;0.40;;;26.40;99.90;;;;;;5133271;27;20864;-60
2023/09/21 11:15:14;;;;;;;0.50;0.40;;;26.50;99.90;;;;;;5131451;27;20496;-60
2023/09/21 11:17:42;;;;;;;0.60;0.40;;;26.70;99.90;;;;;;5129886;27;20726;-60
2023/09/21 11:20:12;;;;;;;0.60;0.30;;;27.00;99.90;;;;;;5130044;27;20410;-60
2023/09/21 11:22:41;;;;;;;0.60;0.35;;;27.10;99.90;;;;;;5127230;27;20854;-60
2023/09/21 11:25:11;;;;;;;0.60;0.40;;;27.00;99.90;;;;;;5124843;27;20556;-59
2023/09/21 11:27:39;;;;;;;1.10;0.30;;;26.80;99.90;;;;;;5128428;27;20745;-59
2023/09/21 11:30:10;;;;;;;1.13;0.40;;;27.00;99.90;;;;;;5131970;27;20426;-59
2023/09/21 11:32:44;;;;;;;0.68;0.40;;;26.90;99.90;;;;;;5134284;27;20524;-59
2023/09/21 11:35:11;;;;;;;1.00;0.40;;;26.80;99.90;;;;;;5131222;27;20514;-59
2023/09/21 11:37:39;;;;;;;0.70;0.40;;;26.80;99.90;;;;;;5131320;27;20459;-59
2023/09/21 11:40:11;;;;;;;0.85;0.50;;;26.80;99.90;;;;;;5132938;27;20483;-59
2023/09/21 11:42:43;;;;;;;0.60;0.32;;;26.70;99.90;;;;;;5130713;27;20425;-59
2023/09/21 11:45:17;;;;;;;0.60;0.40;;;26.80;99.90;;;;;;5131627;27;20423;-59
2023/09/21 11:47:48;;;;;;;0.90;0.40;;;26.60;99.90;;;;;;5132468;27;20407;-59
2023/09/21 11:50:20;;;;;;;0.60;0.40;;;26.50;99.90;;;;;;5132102;27;20834;-60
2023/09/21 11:52:51;;;;;;;0.60;0.33;;;26.70;99.90;;;;;;5134959;27;20425;-60
2023/09/21 11:55:18;;;;;;;0.63;0.40;;;26.90;99.90;;;;;;5134805;27;20430;-59
2023/09/21 11:57:46;;;;;;;0.70;0.40;;;26.90;99.90;;;;;;5133694;27;20529;-59
2023/09/21 12:00:26;;;;;;;0.60;0.40;;;26.90;99.90;;;;;;5132996;27;20422;-59
2023/09/21 12:02:54;;;;;;;0.75;0.40;;;26.60;99.90;;;;;;5132850;27;20429;-59
2023/09/21 12:05:21;;;;;;;0.60;0.37;;;26.50;99.90;;;;;;5132176;27;20411;-59
2023/09/21 12:07:51;;;;;;;0.50;0.30;;;26.70;99.90;;;;;;5132101;27;20769;-59
2023/09/21 12:10:18;;;;;;;0.80;0.40;;;27.00;99.90;;;;;;5130528;27;20430;-59
2023/09/21 12:12:46;;;;;;;0.50;0.30;;;27.10;99.90;;;;;;5128294;27;20509;-60
2023/09/21 12:15:17;;;;;;;0.80;0.50;;;27.30;99.90;;;;;;5133234;27;20418;-60
2023/09/21 12:17:44;;;;;;;0.90;0.40;;;27.10;99.90;;;;;;5128868;27;20866;-59
2023/09/21 12:20:17;;;;;;;0.60;0.30;;;26.90;99.90;;;;;;5124546;27;20450;-59
2023/09/21 12:22:45;;;;;;;0.60;0.40;;;26.90;99.90;;;;;;5131042;27;20458;-60
2023/09/21 12:25:12;;;;;;;0.60;0.40;;;27.00;99.90;;;;;;5130598;27;20418;-59
2023/09/21 12:27:42;;;;;;;0.90;0.50;;;27.10;99.90;;;;;;5132971;27;20447;-59
2023/09/21 12:30:14;;;;;;;1.40;0.40;;;27.30;99.90;;;;;;5132421;27;20452;-60
2023/09/21 12:32:43;;;;;;;0.70;0.40;;;27.60;99.90;;;;;;5128743;27;20858;-59
2023/09/21 12:35:17;;;;;;;0.93;0.40;;;27.70;99.90;;;;;;5128599;27;20415;-60
2023/09/21 12:37:45;;;;;;;0.50;0.30;;;27.80;99.90;;;;;;5131092;27;20520;-60
2023/09/21 12:40:14;;;;;;;1.70;0.40;;;27.80;99.90;;;;;;5130586;27;20422;-60
2023/09/21 12:42:42;;;;;;;0.70;0.50;;;27.80;99.90;;;;;;5130958;27;20446;-60
2023/09/21 12:45:11;;;;;;;1.00;0.40;;;27.40;99.90;;;;;;5131892;27;20442;-60
2023/09/21 12:47:39;;;;;;;0.60;0.40;;;27.40;99.90;;;;;;5131223;27;20411;-60
2023/09/21 12:50:09;;;;;;;0.60;0.40;;;27.70;99.90;;;;;;5133241;27;20710;-59
2023/09/21 12:52:37;;;;;;;0.50;0.35;;;27.70;99.90;;;;;;5131508;27;20725;-60
2023/09/21 12:55:05;;;;;;;0.60;0.40;;;27.80;99.90;;;;;;5132182;27;20414;-61
2023/09/21 12:57:35;;;;;;;1.17;0.40;;;27.80;99.90;;;;;;5133498;27;20790;-60